Archer, Wyoming
Current Conditions -  °F | °C
As of 5:53 PM on Friday 28 Nov 2014 (Local Time) from KCYS Reporting Station
Clear Clear  
Wind Chill: 11°   Ceiling: Unl
Heat Index: 11°   Visibility: 10mi
Dew Point: -11°   Wind: 18mph
Humidity: 22%   Direction: 260°W
Pressure: 29.83"   Gusts: NA
Location:  41.4091°N, 104.861°W
Report Text: KCYS 290053Z 26016KT 10SM CLR 11/M11 A2983 RMK AO2 SLP053 T01061106
Loading
Personal Weather Stations






























Interactive Weather Map New forecast layout! Learn more

10-Day Weather Forecast

Advertisements
Track Severe Weather on mobile